sensor_id;sensor_type;location;lat;lon;timestamp;P1;durP1;ratioP1;P2;durP2;ratioP2
37205;SDS011;23099;42.636;23.198;2023-08-12T00:01:02;4.22;;;1.98;;
37205;SDS011;23099;42.636;23.198;2023-08-12T00:03:28;4.13;;;1.77;;
37205;SDS011;23099;42.636;23.198;2023-08-12T00:05:55;8.43;;;2.08;;
37205;SDS011;23099;42.636;23.198;2023-08-12T00:08:22;6.07;;;2.47;;
37205;SDS011;23099;42.636;23.198;2023-08-12T00:10:49;4.65;;;2.17;;
37205;SDS011;23099;42.636;23.198;2023-08-12T00:13:17;5.03;;;1.95;;
37205;SDS011;23099;42.636;23.198;2023-08-12T00:15:44;4.82;;;1.88;;
37205;SDS011;23099;42.636;23.198;2023-08-12T00:18:11;5.47;;;2.20;;
37205;SDS011;23099;42.636;23.198;2023-08-12T00:20:37;5.32;;;2.42;;
37205;SDS011;23099;42.636;23.198;2023-08-12T00:23:04;3.95;;;2.20;;
37205;SDS011;23099;42.636;23.198;2023-08-12T00:25:31;4.32;;;2.10;;
37205;SDS011;23099;42.636;23.198;2023-08-12T00:27:58;5.57;;;2.00;;
37205;SDS011;23099;42.636;23.198;2023-08-12T00:30:26;4.07;;;2.05;;
37205;SDS011;23099;42.636;23.198;2023-08-12T00:32:52;6.15;;;2.05;;
37205;SDS011;23099;42.636;23.198;2023-08-12T00:35:19;5.10;;;2.30;;
37205;SDS011;23099;42.636;23.198;2023-08-12T00:37:46;6.53;;;2.05;;
37205;SDS011;23099;42.636;23.198;2023-08-12T00:40:12;5.72;;;2.00;;
37205;SDS011;23099;42.636;23.198;2023-08-12T00:42:39;4.30;;;2.10;;
37205;SDS011;23099;42.636;23.198;2023-08-12T00:45:08;5.25;;;2.50;;
37205;SDS011;23099;42.636;23.198;2023-08-12T00:47:37;5.97;;;2.38;;
37205;SDS011;23099;42.636;23.198;2023-08-12T00:50:04;5.82;;;2.33;;
37205;SDS011;23099;42.636;23.198;2023-08-12T00:52:32;4.97;;;2.10;;
37205;SDS011;23099;42.636;23.198;2023-08-12T00:54:58;4.65;;;2.75;;
37205;SDS011;23099;42.636;23.198;2023-08-12T00:57:25;6.53;;;2.25;;
37205;SDS011;23099;42.636;23.198;2023-08-12T00:59:52;5.63;;;2.45;;
37205;SDS011;23099;42.636;23.198;2023-08-12T01:04:48;7.25;;;2.63;;
37205;SDS011;23099;42.636;23.198;2023-08-12T01:07:15;6.88;;;2.70;;
37205;SDS011;23099;42.636;23.198;2023-08-12T01:09:41;6.18;;;2.33;;
37205;SDS011;23099;42.636;23.198;2023-08-12T01:12:09;6.95;;;2.97;;
37205;SDS011;23099;42.636;23.198;2023-08-12T01:14:42;5.40;;;3.10;;
37205;SDS011;23099;42.636;23.198;2023-08-12T01:17:17;6.38;;;2.72;;
37205;SDS011;23099;42.636;23.198;2023-08-12T01:22:14;5.85;;;3.00;;
37205;SDS011;23099;42.636;23.198;2023-08-12T01:24:44;6.22;;;2.65;;
37205;SDS011;23099;42.636;23.198;2023-08-12T01:27:11;6.63;;;2.63;;
37205;SDS011;23099;42.636;23.198;2023-08-12T01:29:39;7.05;;;2.83;;
37205;SDS011;23099;42.636;23.198;2023-08-12T01:32:09;7.88;;;2.63;;
37205;SDS011;23099;42.636;23.198;2023-08-12T01:34:42;4.13;;;2.35;;
37205;SDS011;23099;42.636;23.198;2023-08-12T01:37:14;5.22;;;2.35;;
37205;SDS011;23099;42.636;23.198;2023-08-12T01:39:49;6.40;;;3.15;;
37205;SDS011;23099;42.636;23.198;2023-08-12T01:42:17;6.65;;;2.30;;
37205;SDS011;23099;42.636;23.198;2023-08-12T01:44:45;5.30;;;2.03;;
37205;SDS011;23099;42.636;23.198;2023-08-12T01:47:13;7.32;;;2.45;;
37205;SDS011;23099;42.636;23.198;2023-08-12T01:49:39;6.38;;;2.63;;
37205;SDS011;23099;42.636;23.198;2023-08-12T01:52:06;4.32;;;2.13;;
37205;SDS011;23099;42.636;23.198;2023-08-12T01:54:33;7.28;;;3.00;;
37205;SDS011;23099;42.636;23.198;2023-08-12T01:57:02;6.60;;;3.30;;
37205;SDS011;23099;42.636;23.198;2023-08-12T01:59:30;4.25;;;2.00;;
37205;SDS011;23099;42.636;23.198;2023-08-12T02:01:57;6.15;;;2.60;;
37205;SDS011;23099;42.636;23.198;2023-08-12T02:04:24;4.68;;;2.40;;
37205;SDS011;23099;42.636;23.198;2023-08-12T02:06:51;5.37;;;2.80;;
37205;SDS011;23099;42.636;23.198;2023-08-12T02:09:18;5.78;;;2.45;;
37205;SDS011;23099;42.636;23.198;2023-08-12T02:11:44;4.05;;;1.88;;
37205;SDS011;23099;42.636;23.198;2023-08-12T02:14:12;5.35;;;2.22;;
37205;SDS011;23099;42.636;23.198;2023-08-12T02:16:39;6.38;;;2.60;;
37205;SDS011;23099;42.636;23.198;2023-08-12T02:19:06;5.30;;;2.40;;
37205;SDS011;23099;42.636;23.198;2023-08-12T02:21:33;6.40;;;2.80;;
37205;SDS011;23099;42.636;23.198;2023-08-12T02:23:59;5.03;;;2.30;;
37205;SDS011;23099;42.636;23.198;2023-08-12T02:26:26;4.97;;;2.22;;
37205;SDS011;23099;42.636;23.198;2023-08-12T02:28:53;4.57;;;2.50;;
37205;SDS011;23099;42.636;23.198;2023-08-12T02:31:21;5.35;;;2.80;;
37205;SDS011;23099;42.636;23.198;2023-08-12T02:33:47;7.03;;;2.63;;
37205;SDS011;23099;42.636;23.198;2023-08-12T02:36:15;5.22;;;2.30;;
37205;SDS011;23099;42.636;23.198;2023-08-12T02:38:42;5.88;;;3.00;;
37205;SDS011;23099;42.636;23.198;2023-08-12T02:41:08;4.88;;;2.40;;
37205;SDS011;23099;42.636;23.198;2023-08-12T02:43:35;6.63;;;3.15;;
37205;SDS011;23099;42.636;23.198;2023-08-12T02:46:02;7.75;;;2.90;;
37205;SDS011;23099;42.636;23.198;2023-08-12T02:48:30;6.18;;;2.92;;
37205;SDS011;23099;42.636;23.198;2023-08-12T02:50:57;7.00;;;2.70;;
37205;SDS011;23099;42.636;23.198;2023-08-12T02:53:23;6.38;;;3.03;;
37205;SDS011;23099;42.636;23.198;2023-08-12T02:55:50;5.70;;;2.63;;
37205;SDS011;23099;42.636;23.198;2023-08-12T02:58:17;6.53;;;2.60;;
37205;SDS011;23099;42.636;23.198;2023-08-12T03:00:44;7.78;;;2.90;;
37205;SDS011;23099;42.636;23.198;2023-08-12T03:03:10;5.88;;;2.55;;
37205;SDS011;23099;42.636;23.198;2023-08-12T03:05:38;5.95;;;2.85;;
37205;SDS011;23099;42.636;23.198;2023-08-12T03:08:06;8.13;;;2.72;;
37205;SDS011;23099;42.636;23.198;2023-08-12T03:10:32;5.60;;;2.55;;
37205;SDS011;23099;42.636;23.198;2023-08-12T03:12:59;5.25;;;2.30;;
37205;SDS011;23099;42.636;23.198;2023-08-12T03:15:26;7.45;;;2.65;;
37205;SDS011;23099;42.636;23.198;2023-08-12T03:17:53;4.75;;;2.25;;
37205;SDS011;23099;42.636;23.198;2023-08-12T03:20:19;5.70;;;2.58;;
37205;SDS011;23099;42.636;23.198;2023-08-12T03:22:48;5.95;;;2.35;;
37205;SDS011;23099;42.636;23.198;2023-08-12T03:25:15;4.63;;;2.50;;
37205;SDS011;23099;42.636;23.198;2023-08-12T03:27:42;5.30;;;2.78;;
37205;SDS011;23099;42.636;23.198;2023-08-12T03:30:09;6.35;;;2.78;;
37205;SDS011;23099;42.636;23.198;2023-08-12T03:32:36;4.78;;;2.25;;
37205;SDS011;23099;42.636;23.198;2023-08-12T03:35:03;6.57;;;2.60;;
37205;SDS011;23099;42.636;23.198;2023-08-12T03:37:30;5.22;;;2.20;;
37205;SDS011;23099;42.636;23.198;2023-08-12T03:39:59;5.97;;;2.92;;
37205;SDS011;23099;42.636;23.198;2023-08-12T03:42:25;4.80;;;2.17;;
37205;SDS011;23099;42.636;23.198;2023-08-12T03:44:52;4.93;;;2.55;;
37205;SDS011;23099;42.636;23.198;2023-08-12T03:47:19;5.50;;;2.42;;
37205;SDS011;23099;42.636;23.198;2023-08-12T03:49:48;6.13;;;2.65;;
37205;SDS011;23099;42.636;23.198;2023-08-12T03:52:15;6.07;;;2.78;;
37205;SDS011;23099;42.636;23.198;2023-08-12T03:54:42;5.93;;;2.38;;
37205;SDS011;23099;42.636;23.198;2023-08-12T03:57:11;6.50;;;2.60;;
37205;SDS011;23099;42.636;23.198;2023-08-12T03:59:38;5.43;;;2.97;;
37205;SDS011;23099;42.636;23.198;2023-08-12T04:02:05;6.45;;;2.55;;
37205;SDS011;23099;42.636;23.198;2023-08-12T04:04:31;9.82;;;2.35;;
37205;SDS011;23099;42.636;23.198;2023-08-12T04:06:58;7.97;;;2.40;;
37205;SDS011;23099;42.636;23.198;2023-08-12T04:09:25;5.15;;;2.40;;
37205;SDS011;23099;42.636;23.198;2023-08-12T04:11:51;5.82;;;2.20;;
37205;SDS011;23099;42.636;23.198;2023-08-12T04:14:19;7.22;;;2.42;;
37205;SDS011;23099;42.636;23.198;2023-08-12T04:16:46;6.97;;;2.78;;
37205;SDS011;23099;42.636;23.198;2023-08-12T04:19:13;6.20;;;2.53;;
37205;SDS011;23099;42.636;23.198;2023-08-12T04:21:39;4.38;;;2.20;;
37205;SDS011;23099;42.636;23.198;2023-08-12T04:24:07;7.00;;;2.50;;
37205;SDS011;23099;42.636;23.198;2023-08-12T04:26:34;5.45;;;2.38;;
37205;SDS011;23099;42.636;23.198;2023-08-12T04:29:01;5.63;;;2.22;;
37205;SDS011;23099;42.636;23.198;2023-08-12T04:31:29;5.55;;;2.10;;
37205;SDS011;23099;42.636;23.198;2023-08-12T04:33:55;4.65;;;2.47;;
37205;SDS011;23099;42.636;23.198;2023-08-12T04:36:22;5.20;;;2.47;;
37205;SDS011;23099;42.636;23.198;2023-08-12T04:38:49;5.53;;;2.30;;
37205;SDS011;23099;42.636;23.198;2023-08-12T04:41:16;5.47;;;2.22;;
37205;SDS011;23099;42.636;23.198;2023-08-12T04:43:43;5.57;;;2.35;;
37205;SDS011;23099;42.636;23.198;2023-08-12T04:46:10;5.47;;;2.03;;
37205;SDS011;23099;42.636;23.198;2023-08-12T04:48:38;4.28;;;2.17;;
37205;SDS011;23099;42.636;23.198;2023-08-12T04:51:05;5.40;;;2.13;;
37205;SDS011;23099;42.636;23.198;2023-08-12T04:53:32;5.85;;;2.08;;
37205;SDS011;23099;42.636;23.198;2023-08-12T04:55:59;4.82;;;1.73;;
37205;SDS011;23099;42.636;23.198;2023-08-12T04:58:25;4.15;;;2.05;;
37205;SDS011;23099;42.636;23.198;2023-08-12T05:00:52;3.85;;;1.60;;
37205;SDS011;23099;42.636;23.198;2023-08-12T05:03:19;4.45;;;1.70;;
37205;SDS011;23099;42.636;23.198;2023-08-12T05:05:49;4.60;;;1.50;;
37205;SDS011;23099;42.636;23.198;2023-08-12T05:08:16;3.50;;;1.67;;
37205;SDS011;23099;42.636;23.198;2023-08-12T05:10:43;4.55;;;1.40;;
37205;SDS011;23099;42.636;23.198;2023-08-12T05:13:10;4.22;;;1.60;;
37205;SDS011;23099;42.636;23.198;2023-08-12T05:15:37;4.13;;;1.60;;
37205;SDS011;23099;42.636;23.198;2023-08-12T05:18:04;4.32;;;1.67;;
37205;SDS011;23099;42.636;23.198;2023-08-12T05:20:31;4.75;;;1.65;;
37205;SDS011;23099;42.636;23.198;2023-08-12T05:22:59;4.38;;;1.42;;
37205;SDS011;23099;42.636;23.198;2023-08-12T05:25:26;5.10;;;1.40;;
37205;SDS011;23099;42.636;23.198;2023-08-12T05:27:53;4.47;;;1.52;;
37205;SDS011;23099;42.636;23.198;2023-08-12T05:30:19;4.05;;;1.40;;
37205;SDS011;23099;42.636;23.198;2023-08-12T05:32:46;3.67;;;1.52;;
37205;SDS011;23099;42.636;23.198;2023-08-12T05:35:13;6.03;;;1.67;;
37205;SDS011;23099;42.636;23.198;2023-08-12T05:37:39;3.65;;;1.38;;
37205;SDS011;23099;42.636;23.198;2023-08-12T05:40:09;3.70;;;1.40;;
37205;SDS011;23099;42.636;23.198;2023-08-12T05:42:36;3.85;;;1.27;;
37205;SDS011;23099;42.636;23.198;2023-08-12T05:45:04;3.13;;;1.30;;
37205;SDS011;23099;42.636;23.198;2023-08-12T05:47:31;6.22;;;1.25;;
37205;SDS011;23099;42.636;23.198;2023-08-12T05:49:58;2.88;;;1.15;;
37205;SDS011;23099;42.636;23.198;2023-08-12T05:52:25;3.83;;;1.10;;
37205;SDS011;23099;42.636;23.198;2023-08-12T05:54:52;3.45;;;1.25;;
37205;SDS011;23099;42.636;23.198;2023-08-12T05:57:20;4.70;;;1.20;;
37205;SDS011;23099;42.636;23.198;2023-08-12T05:59:46;4.95;;;1.30;;
37205;SDS011;23099;42.636;23.198;2023-08-12T06:02:13;4.82;;;1.27;;
37205;SDS011;23099;42.636;23.198;2023-08-12T06:04:40;3.38;;;1.20;;
37205;SDS011;23099;42.636;23.198;2023-08-12T06:07:07;3.67;;;1.13;;
37205;SDS011;23099;42.636;23.198;2023-08-12T06:09:33;4.50;;;1.20;;
37205;SDS011;23099;42.636;23.198;2023-08-12T06:12:00;4.32;;;1.42;;
37205;SDS011;23099;42.636;23.198;2023-08-12T06:14:28;4.00;;;1.52;;
37205;SDS011;23099;42.636;23.198;2023-08-12T06:16:55;4.05;;;1.40;;
37205;SDS011;23099;42.636;23.198;2023-08-12T06:19:21;5.72;;;1.63;;
37205;SDS011;23099;42.636;23.198;2023-08-12T06:21:48;3.78;;;1.30;;
37205;SDS011;23099;42.636;23.198;2023-08-12T06:24:15;3.45;;;1.33;;
37205;SDS011;23099;42.636;23.198;2023-08-12T06:26:41;3.88;;;1.50;;
37205;SDS011;23099;42.636;23.198;2023-08-12T06:29:08;5.30;;;1.45;;
37205;SDS011;23099;42.636;23.198;2023-08-12T06:31:36;3.65;;;1.05;;
37205;SDS011;23099;42.636;23.198;2023-08-12T06:34:03;3.65;;;1.00;;
37205;SDS011;23099;42.636;23.198;2023-08-12T06:36:30;4.07;;;1.25;;
37205;SDS011;23099;42.636;23.198;2023-08-12T06:38:56;3.35;;;1.13;;
37205;SDS011;23099;42.636;23.198;2023-08-12T06:41:23;4.13;;;1.10;;
37205;SDS011;23099;42.636;23.198;2023-08-12T06:43:50;4.40;;;1.40;;
37205;SDS011;23099;42.636;23.198;2023-08-12T06:46:17;3.63;;;1.15;;
37205;SDS011;23099;42.636;23.198;2023-08-12T06:48:45;4.95;;;1.48;;
37205;SDS011;23099;42.636;23.198;2023-08-12T06:51:11;4.93;;;1.63;;
37205;SDS011;23099;42.636;23.198;2023-08-12T06:53:38;3.85;;;1.23;;
37205;SDS011;23099;42.636;23.198;2023-08-12T06:56:06;3.70;;;1.10;;
37205;SDS011;23099;42.636;23.198;2023-08-12T06:58:32;3.17;;;1.02;;
37205;SDS011;23099;42.636;23.198;2023-08-12T07:00:59;2.72;;;1.23;;
37205;SDS011;23099;42.636;23.198;2023-08-12T07:03:26;3.25;;;1.20;;
37205;SDS011;23099;42.636;23.198;2023-08-12T07:05:54;3.65;;;1.42;;
37205;SDS011;23099;42.636;23.198;2023-08-12T07:08:20;4.25;;;1.48;;
37205;SDS011;23099;42.636;23.198;2023-08-12T07:10:47;2.65;;;1.10;;
37205;SDS011;23099;42.636;23.198;2023-08-12T07:13:14;3.30;;;1.17;;
37205;SDS011;23099;42.636;23.198;2023-08-12T07:15:40;4.65;;;1.50;;
37205;SDS011;23099;42.636;23.198;2023-08-12T07:18:07;3.42;;;1.38;;
37205;SDS011;23099;42.636;23.198;2023-08-12T07:20:34;4.10;;;1.20;;
37205;SDS011;23099;42.636;23.198;2023-08-12T07:23:02;4.35;;;1.40;;
37205;SDS011;23099;42.636;23.198;2023-08-12T07:27:55;3.20;;;1.30;;
37205;SDS011;23099;42.636;23.198;2023-08-12T07:30:22;4.70;;;1.02;;
37205;SDS011;23099;42.636;23.198;2023-08-12T07:32:49;4.15;;;1.40;;
37205;SDS011;23099;42.636;23.198;2023-08-12T07:35:15;3.58;;;1.35;;
37205;SDS011;23099;42.636;23.198;2023-08-12T07:37:42;3.58;;;1.50;;
37205;SDS011;23099;42.636;23.198;2023-08-12T07:40:11;4.45;;;1.17;;
37205;SDS011;23099;42.636;23.198;2023-08-12T07:42:37;3.55;;;1.35;;
37205;SDS011;23099;42.636;23.198;2023-08-12T07:45:05;5.90;;;1.20;;
37205;SDS011;23099;42.636;23.198;2023-08-12T07:47:34;5.25;;;1.33;;
37205;SDS011;23099;42.636;23.198;2023-08-12T07:50:00;4.28;;;1.80;;
37205;SDS011;23099;42.636;23.198;2023-08-12T07:52:27;4.00;;;1.63;;
37205;SDS011;23099;42.636;23.198;2023-08-12T07:54:54;3.85;;;1.50;;
37205;SDS011;23099;42.636;23.198;2023-08-12T07:57:22;6.88;;;1.30;;
37205;SDS011;23099;42.636;23.198;2023-08-12T07:59:49;4.70;;;1.40;;
37205;SDS011;23099;42.636;23.198;2023-08-12T08:02:16;3.30;;;1.33;;
37205;SDS011;23099;42.636;23.198;2023-08-12T08:04:42;3.63;;;1.10;;
37205;SDS011;23099;42.636;23.198;2023-08-12T08:07:10;4.63;;;1.50;;
37205;SDS011;23099;42.636;23.198;2023-08-12T08:09:37;5.88;;;1.50;;
37205;SDS011;23099;42.636;23.198;2023-08-12T08:12:04;4.10;;;1.48;;
37205;SDS011;23099;42.636;23.198;2023-08-12T08:14:33;5.15;;;1.40;;
37205;SDS011;23099;42.636;23.198;2023-08-12T08:17:00;6.63;;;1.60;;
37205;SDS011;23099;42.636;23.198;2023-08-12T08:19:27;5.82;;;1.60;;
37205;SDS011;23099;42.636;23.198;2023-08-12T08:21:53;7.50;;;1.50;;
37205;SDS011;23099;42.636;23.198;2023-08-12T08:24:20;4.35;;;1.60;;
37205;SDS011;23099;42.636;23.198;2023-08-12T08:26:47;4.15;;;1.38;;
37205;SDS011;23099;42.636;23.198;2023-08-12T08:29:14;3.92;;;1.42;;
37205;SDS011;23099;42.636;23.198;2023-08-12T08:31:42;3.38;;;1.50;;
37205;SDS011;23099;42.636;23.198;2023-08-12T08:34:08;3.92;;;1.63;;
37205;SDS011;23099;42.636;23.198;2023-08-12T08:36:35;7.30;;;1.52;;
37205;SDS011;23099;42.636;23.198;2023-08-12T08:39:02;4.13;;;1.50;;
37205;SDS011;23099;42.636;23.198;2023-08-12T08:41:30;6.05;;;2.08;;
37205;SDS011;23099;42.636;23.198;2023-08-12T08:46:27;5.25;;;1.70;;
37205;SDS011;23099;42.636;23.198;2023-08-12T08:48:56;5.63;;;1.50;;
37205;SDS011;23099;42.636;23.198;2023-08-12T08:51:25;8.50;;;1.60;;
37205;SDS011;23099;42.636;23.198;2023-08-12T08:53:52;4.63;;;1.77;;
37205;SDS011;23099;42.636;23.198;2023-08-12T08:56:20;4.43;;;1.52;;
37205;SDS011;23099;42.636;23.198;2023-08-12T08:58:48;5.15;;;1.48;;
37205;SDS011;23099;42.636;23.198;2023-08-12T09:01:15;6.15;;;1.30;;
37205;SDS011;23099;42.636;23.198;2023-08-12T09:03:43;4.20;;;1.67;;
37205;SDS011;23099;42.636;23.198;2023-08-12T09:06:12;6.15;;;1.70;;
37205;SDS011;23099;42.636;23.198;2023-08-12T09:11:07;4.28;;;1.40;;
37205;SDS011;23099;42.636;23.198;2023-08-12T09:13:34;5.00;;;1.48;;
37205;SDS011;23099;42.636;23.198;2023-08-12T09:16:00;4.78;;;1.73;;
37205;SDS011;23099;42.636;23.198;2023-08-12T09:18:29;3.97;;;1.40;;
37205;SDS011;23099;42.636;23.198;2023-08-12T09:20:56;4.65;;;1.50;;
37205;SDS011;23099;42.636;23.198;2023-08-12T09:23:24;3.33;;;1.40;;
37205;SDS011;23099;42.636;23.198;2023-08-12T09:25:52;5.28;;;1.42;;
37205;SDS011;23099;42.636;23.198;2023-08-12T09:28:19;7.88;;;1.70;;
37205;SDS011;23099;42.636;23.198;2023-08-12T09:30:49;4.43;;;1.27;;
37205;SDS011;23099;42.636;23.198;2023-08-12T09:33:17;3.47;;;1.48;;
37205;SDS011;23099;42.636;23.198;2023-08-12T09:35:50;4.57;;;1.45;;
37205;SDS011;23099;42.636;23.198;2023-08-12T09:38:17;7.82;;;1.88;;
37205;SDS011;23099;42.636;23.198;2023-08-12T09:40:46;6.53;;;1.45;;
37205;SDS011;23099;42.636;23.198;2023-08-12T09:43:13;5.13;;;1.60;;
37205;SDS011;23099;42.636;23.198;2023-08-12T09:48:10;3.75;;;1.38;;
37205;SDS011;23099;42.636;23.198;2023-08-12T09:50:37;3.63;;;1.45;;
37205;SDS011;23099;42.636;23.198;2023-08-12T09:53:04;4.60;;;1.40;;
37205;SDS011;23099;42.636;23.198;2023-08-12T09:55:31;3.90;;;1.30;;
37205;SDS011;23099;42.636;23.198;2023-08-12T09:58:02;6.43;;;1.40;;
37205;SDS011;23099;42.636;23.198;2023-08-12T10:00:33;3.70;;;1.42;;
37205;SDS011;23099;42.636;23.198;2023-08-12T10:03:00;3.53;;;1.30;;
37205;SDS011;23099;42.636;23.198;2023-08-12T10:05:31;8.25;;;1.30;;
37205;SDS011;23099;42.636;23.198;2023-08-12T10:07:59;3.08;;;1.27;;
37205;SDS011;23099;42.636;23.198;2023-08-12T10:10:28;3.50;;;1.30;;
37205;SDS011;23099;42.636;23.198;2023-08-12T10:12:56;3.85;;;1.30;;
37205;SDS011;23099;42.636;23.198;2023-08-12T10:15:25;4.65;;;1.48;;
37205;SDS011;23099;42.636;23.198;2023-08-12T10:17:52;4.43;;;1.50;;
37205;SDS011;23099;42.636;23.198;2023-08-12T10:20:23;3.85;;;1.27;;
37205;SDS011;23099;42.636;23.198;2023-08-12T10:22:51;7.75;;;1.50;;
37205;SDS011;23099;42.636;23.198;2023-08-12T10:25:18;4.38;;;1.30;;
37205;SDS011;23099;42.636;23.198;2023-08-12T10:27:47;4.13;;;1.33;;
37205;SDS011;23099;42.636;23.198;2023-08-12T10:30:13;3.67;;;1.25;;
37205;SDS011;23099;42.636;23.198;2023-08-12T10:32:42;4.70;;;1.33;;
37205;SDS011;23099;42.636;23.198;2023-08-12T10:35:09;3.60;;;1.35;;
37205;SDS011;23099;42.636;23.198;2023-08-12T10:37:36;5.60;;;1.77;;
37205;SDS011;23099;42.636;23.198;2023-08-12T10:40:03;4.38;;;1.27;;
37205;SDS011;23099;42.636;23.198;2023-08-12T10:42:39;7.95;;;1.25;;
37205;SDS011;23099;42.636;23.198;2023-08-12T10:45:07;3.28;;;1.13;;
37205;SDS011;23099;42.636;23.198;2023-08-12T10:50:05;3.97;;;1.05;;
37205;SDS011;23099;42.636;23.198;2023-08-12T10:52:42;4.80;;;1.00;;
37205;SDS011;23099;42.636;23.198;2023-08-12T10:55:20;5.97;;;1.00;;
37205;SDS011;23099;42.636;23.198;2023-08-12T10:57:48;3.65;;;1.10;;
37205;SDS011;23099;42.636;23.198;2023-08-12T11:00:17;4.57;;;1.15;;
37205;SDS011;23099;42.636;23.198;2023-08-12T11:02:48;5.10;;;1.25;;
37205;SDS011;23099;42.636;23.198;2023-08-12T11:05:17;2.70;;;0.90;;
37205;SDS011;23099;42.636;23.198;2023-08-12T11:07:45;2.20;;;0.90;;
37205;SDS011;23099;42.636;23.198;2023-08-12T11:10:14;3.47;;;1.23;;
37205;SDS011;23099;42.636;23.198;2023-08-12T11:12:47;3.05;;;1.00;;
37205;SDS011;23099;42.636;23.198;2023-08-12T11:15:28;2.63;;;0.98;;
37205;SDS011;23099;42.636;23.198;2023-08-12T11:17:56;2.78;;;0.98;;
37205;SDS011;23099;42.636;23.198;2023-08-12T11:20:24;2.65;;;1.08;;
37205;SDS011;23099;42.636;23.198;2023-08-12T11:22:51;3.15;;;0.95;;
37205;SDS011;23099;42.636;23.198;2023-08-12T11:25:19;3.42;;;1.10;;
37205;SDS011;23099;42.636;23.198;2023-08-12T11:27:46;2.55;;;0.93;;
37205;SDS011;23099;42.636;23.198;2023-08-12T11:30:14;2.03;;;0.88;;
37205;SDS011;23099;42.636;23.198;2023-08-12T11:32:42;6.07;;;0.90;;
37205;SDS011;23099;42.636;23.198;2023-08-12T11:35:10;1.98;;;0.70;;
37205;SDS011;23099;42.636;23.198;2023-08-12T11:37:40;2.95;;;0.80;;
37205;SDS011;23099;42.636;23.198;2023-08-12T11:40:08;4.78;;;0.80;;
37205;SDS011;23099;42.636;23.198;2023-08-12T11:42:40;3.38;;;0.98;;
37205;SDS011;23099;42.636;23.198;2023-08-12T11:45:08;3.47;;;0.88;;
37205;SDS011;23099;42.636;23.198;2023-08-12T11:47:36;4.05;;;0.90;;
37205;SDS011;23099;42.636;23.198;2023-08-12T11:50:04;5.18;;;0.98;;
37205;SDS011;23099;42.636;23.198;2023-08-12T11:52:32;4.35;;;1.10;;
37205;SDS011;23099;42.636;23.198;2023-08-12T11:55:00;3.87;;;0.70;;
37205;SDS011;23099;42.636;23.198;2023-08-12T11:57:27;3.20;;;0.80;;
37205;SDS011;23099;42.636;23.198;2023-08-12T11:59:58;3.00;;;0.70;;
37205;SDS011;23099;42.636;23.198;2023-08-12T12:02:25;1.88;;;0.60;;
37205;SDS011;23099;42.636;23.198;2023-08-12T12:04:52;3.60;;;0.60;;
37205;SDS011;23099;42.636;23.198;2023-08-12T12:07:19;2.50;;;1.00;;
37205;SDS011;23099;42.636;23.198;2023-08-12T12:09:50;4.03;;;0.90;;
37205;SDS011;23099;42.636;23.198;2023-08-12T12:12:21;2.38;;;0.70;;
37205;SDS011;23099;42.636;23.198;2023-08-12T12:14:50;1.92;;;0.77;;
37205;SDS011;23099;42.636;23.198;2023-08-12T12:17:17;3.78;;;0.70;;
37205;SDS011;23099;42.636;23.198;2023-08-12T12:19:46;5.90;;;0.70;;
37205;SDS011;23099;42.636;23.198;2023-08-12T12:22:13;3.47;;;0.88;;
37205;SDS011;23099;42.636;23.198;2023-08-12T12:24:46;2.35;;;0.70;;
37205;SDS011;23099;42.636;23.198;2023-08-12T12:27:13;4.00;;;0.70;;
37205;SDS011;23099;42.636;23.198;2023-08-12T12:29:41;2.10;;;0.70;;
37205;SDS011;23099;42.636;23.198;2023-08-12T12:32:09;2.25;;;0.60;;
37205;SDS011;23099;42.636;23.198;2023-08-12T12:34:37;2.28;;;0.80;;
37205;SDS011;23099;42.636;23.198;2023-08-12T12:37:04;2.90;;;0.70;;
37205;SDS011;23099;42.636;23.198;2023-08-12T12:39:31;4.90;;;0.70;;
37205;SDS011;23099;42.636;23.198;2023-08-12T12:41:57;2.65;;;0.80;;
37205;SDS011;23099;42.636;23.198;2023-08-12T12:44:25;2.17;;;0.80;;
37205;SDS011;23099;42.636;23.198;2023-08-12T12:46:53;2.88;;;0.98;;
37205;SDS011;23099;42.636;23.198;2023-08-12T12:49:20;1.80;;;0.80;;
37205;SDS011;23099;42.636;23.198;2023-08-12T12:51:47;3.57;;;0.90;;
37205;SDS011;23099;42.636;23.198;2023-08-12T12:54:13;4.95;;;0.90;;
37205;SDS011;23099;42.636;23.198;2023-08-12T12:56:40;3.70;;;0.95;;
37205;SDS011;23099;42.636;23.198;2023-08-12T12:59:07;2.60;;;0.90;;
37205;SDS011;23099;42.636;23.198;2023-08-12T13:01:33;3.72;;;0.80;;
37205;SDS011;23099;42.636;23.198;2023-08-12T13:04:02;3.22;;;1.10;;
37205;SDS011;23099;42.636;23.198;2023-08-12T13:06:28;3.65;;;0.80;;
37205;SDS011;23099;42.636;23.198;2023-08-12T13:08:55;7.50;;;1.00;;
37205;SDS011;23099;42.636;23.198;2023-08-12T13:11:22;3.15;;;0.90;;
37205;SDS011;23099;42.636;23.198;2023-08-12T13:13:48;2.42;;;0.90;;
37205;SDS011;23099;42.636;23.198;2023-08-12T13:16:15;3.75;;;0.80;;
37205;SDS011;23099;42.636;23.198;2023-08-12T13:18:42;3.22;;;1.00;;
37205;SDS011;23099;42.636;23.198;2023-08-12T13:21:10;3.30;;;1.00;;
37205;SDS011;23099;42.636;23.198;2023-08-12T13:26:04;3.35;;;0.98;;
37205;SDS011;23099;42.636;23.198;2023-08-12T13:28:30;3.22;;;1.10;;
37205;SDS011;23099;42.636;23.198;2023-08-12T13:30:57;3.08;;;0.80;;
37205;SDS011;23099;42.636;23.198;2023-08-12T13:33:24;2.85;;;0.90;;
37205;SDS011;23099;42.636;23.198;2023-08-12T13:35:51;4.07;;;0.90;;
37205;SDS011;23099;42.636;23.198;2023-08-12T13:38:19;4.60;;;1.00;;
37205;SDS011;23099;42.636;23.198;2023-08-12T13:40:45;3.58;;;0.80;;
37205;SDS011;23099;42.636;23.198;2023-08-12T13:43:12;3.40;;;0.80;;
37205;SDS011;23099;42.636;23.198;2023-08-12T13:45:39;4.57;;;0.98;;
37205;SDS011;23099;42.636;23.198;2023-08-12T13:48:06;5.18;;;1.33;;
37205;SDS011;23099;42.636;23.198;2023-08-12T13:50:32;6.07;;;0.90;;
37205;SDS011;23099;42.636;23.198;2023-08-12T13:52:59;3.28;;;0.90;;
37205;SDS011;23099;42.636;23.198;2023-08-12T13:55:27;2.10;;;0.80;;
37205;SDS011;23099;42.636;23.198;2023-08-12T13:57:54;2.22;;;0.90;;
37205;SDS011;23099;42.636;23.198;2023-08-12T14:00:20;3.47;;;0.85;;
37205;SDS011;23099;42.636;23.198;2023-08-12T14:02:49;5.10;;;0.80;;
37205;SDS011;23099;42.636;23.198;2023-08-12T14:05:16;4.47;;;0.90;;
37205;SDS011;23099;42.636;23.198;2023-08-12T14:07:42;2.38;;;0.90;;
37205;SDS011;23099;42.636;23.198;2023-08-12T14:10:09;3.20;;;0.73;;
37205;SDS011;23099;42.636;23.198;2023-08-12T14:12:37;2.63;;;0.70;;
37205;SDS011;23099;42.636;23.198;2023-08-12T14:17:31;2.63;;;0.80;;
37205;SDS011;23099;42.636;23.198;2023-08-12T14:19:58;3.35;;;1.10;;
37205;SDS011;23099;42.636;23.198;2023-08-12T14:22:24;2.08;;;0.80;;
37205;SDS011;23099;42.636;23.198;2023-08-12T14:24:51;2.63;;;1.00;;
37205;SDS011;23099;42.636;23.198;2023-08-12T14:27:18;3.22;;;0.80;;
37205;SDS011;23099;42.636;23.198;2023-08-12T14:29:46;1.80;;;0.70;;
37205;SDS011;23099;42.636;23.198;2023-08-12T14:34:41;2.70;;;0.80;;
37205;SDS011;23099;42.636;23.198;2023-08-12T14:37:10;3.63;;;0.88;;
37205;SDS011;23099;42.636;23.198;2023-08-12T14:39:37;3.80;;;0.80;;
37205;SDS011;23099;42.636;23.198;2023-08-12T14:42:04;2.28;;;0.85;;
37205;SDS011;23099;42.636;23.198;2023-08-12T14:44:33;3.00;;;0.75;;
37205;SDS011;23099;42.636;23.198;2023-08-12T14:47:01;2.88;;;0.70;;
37205;SDS011;23099;42.636;23.198;2023-08-12T14:49:29;4.00;;;0.95;;
37205;SDS011;23099;42.636;23.198;2023-08-12T14:51:55;4.80;;;0.95;;
37205;SDS011;23099;42.636;23.198;2023-08-12T14:54:22;4.10;;;0.80;;
37205;SDS011;23099;42.636;23.198;2023-08-12T14:56:49;4.32;;;0.98;;
37205;SDS011;23099;42.636;23.198;2023-08-12T14:59:15;4.55;;;0.88;;